Terminal Aerodrome Forecast
Issued by NWS

Home | Current Version | Previous Version | Text Only | Print | Product List | Glossary On
Versions: 1 2 3 4 5 6 7 8 9 10 11 12 13 14 15
000
FTAK31 PANC 200535
TAFAGK
TAF
PAGK 200535Z 2006/2106 34004KT P6SM FEW007
     FM201200 00000KT 2SM BR SCT002 OVC010
     FM202000 34004KT P6SM FEW007 SCT120=

USA.gov is the U.S. government's official web portal to all federal, state and local government web resources and services.